createdAt,value
2023-05-21T00:00:17.966Z,84.91
2023-05-21T00:01:18.265Z,85.01
2023-05-21T00:02:17.973Z,84.80
2023-05-21T00:03:18.020Z,84.91
2023-05-21T00:04:17.921Z,85.01
2023-05-21T00:05:17.919Z,85.11
2023-05-21T00:06:17.954Z,85.25
2023-05-21T00:07:17.906Z,85.35
2023-05-21T00:08:19.168Z,85.55
2023-05-21T00:09:17.860Z,85.35
2023-05-21T00:10:18.524Z,85.46
2023-05-21T00:11:17.968Z,85.66
2023-05-21T00:12:17.819Z,85.76
2023-05-21T00:13:17.837Z,85.86
2023-05-21T00:14:17.785Z,85.96
2023-05-21T00:15:18.094Z,85.96
2023-05-21T00:16:17.820Z,85.86
2023-05-21T00:17:17.733Z,86.07
2023-05-21T00:18:17.765Z,85.96
2023-05-21T00:19:17.807Z,86.16
2023-05-21T00:20:17.772Z,86.16
2023-05-21T00:21:17.730Z,86.27
2023-05-21T00:22:17.977Z,86.37
2023-05-21T00:23:17.685Z,86.41
2023-05-21T00:24:17.690Z,86.51
2023-05-21T00:25:17.688Z,86.61
2023-05-21T00:26:17.674Z,86.71
2023-05-21T00:27:17.651Z,86.71
2023-05-21T00:28:17.642Z,86.92
2023-05-21T00:29:17.972Z,86.92
2023-05-21T00:30:17.672Z,86.92
2023-05-21T00:31:17.808Z,87.02
2023-05-21T00:32:17.602Z,87.23
2023-05-21T00:33:17.583Z,87.12
2023-05-21T00:34:17.564Z,87.23
2023-05-21T00:35:17.565Z,87.32
2023-05-21T00:36:17.850Z,87.32
2023-05-21T00:37:17.587Z,87.43
2023-05-21T00:38:17.525Z,87.43
2023-05-21T00:39:17.498Z,87.43
2023-05-21T00:40:17.498Z,87.63
2023-05-21T00:41:17.491Z,87.73
2023-05-21T00:42:17.474Z,87.73
2023-05-21T00:43:17.798Z,87.84
2023-05-21T00:44:17.455Z,87.93
2023-05-21T00:45:17.449Z,87.98
2023-05-21T00:46:17.460Z,88.08
2023-05-21T00:47:17.423Z,88.28
2023-05-21T00:48:17.416Z,88.39
2023-05-21T00:49:17.471Z,88.39
2023-05-21T00:50:17.667Z,88.59
2023-05-21T00:51:17.400Z,88.48
2023-05-21T00:52:17.376Z,88.59
2023-05-21T00:53:17.352Z,88.48
2023-05-21T00:54:17.352Z,88.59
2023-05-21T00:55:17.396Z,88.69
2023-05-21T00:56:17.368Z,88.59
2023-05-21T00:57:17.615Z,88.79
2023-05-21T00:58:17.315Z,88.79
2023-05-21T00:59:17.300Z,88.89
2023-05-21T01:00:17.309Z,89.00
2023-05-21T01:01:17.406Z,89.09
2023-05-21T01:02:17.363Z,89.20
2023-05-21T01:03:17.366Z,89.09
2023-05-21T01:04:17.559Z,89.30
2023-05-21T01:05:17.228Z,89.40
2023-05-21T01:06:17.212Z,89.40
2023-05-21T01:07:17.289Z,89.50
2023-05-21T01:08:17.206Z,89.64
2023-05-21T01:09:17.194Z,89.85
2023-05-21T01:10:17.226Z,89.75
2023-05-21T01:11:17.478Z,89.85
2023-05-21T01:12:17.168Z,89.85
2023-05-21T01:13:17.245Z,89.95
2023-05-21T01:14:17.142Z,89.95
2023-05-21T01:15:17.114Z,90.05
2023-05-21T01:16:17.139Z,90.05
2023-05-21T01:17:17.108Z,90.05
2023-05-21T01:18:17.401Z,90.16
2023-05-21T01:19:17.206Z,90.25
2023-05-21T01:20:17.069Z,90.25
2023-05-21T01:21:17.057Z,90.36
2023-05-21T01:22:17.061Z,90.46
2023-05-21T01:23:17.021Z,90.56
2023-05-21T01:24:17.033Z,90.46
2023-05-21T01:25:17.050Z,90.56
2023-05-21T01:26:17.008Z,90.56
2023-05-21T01:27:16.991Z,90.66
2023-05-21T01:28:17.045Z,90.77
2023-05-21T01:29:17.003Z,90.77
2023-05-21T01:30:16.963Z,90.86
2023-05-21T01:31:17.055Z,90.86
2023-05-21T01:32:16.956Z,90.97
2023-05-21T01:33:16.967Z,90.97
2023-05-21T01:34:16.934Z,91.17
2023-05-21T01:35:16.911Z,91.22
2023-05-21T01:36:16.907Z,91.27
2023-05-21T01:37:17.209Z,91.27
2023-05-21T01:38:16.902Z,91.31
2023-05-21T01:39:16.870Z,91.38
2023-05-21T01:40:16.849Z,91.38
2023-05-21T01:41:16.917Z,91.42
2023-05-21T01:42:16.854Z,91.52
2023-05-21T01:43:16.872Z,91.52
2023-05-21T01:44:17.092Z,91.52
2023-05-21T01:45:16.829Z,91.62
2023-05-21T01:46:16.833Z,91.62
2023-05-21T01:47:16.781Z,91.72
2023-05-21T01:48:16.801Z,91.72
2023-05-21T01:49:16.788Z,91.83
2023-05-21T01:50:16.752Z,92.03
2023-05-21T01:51:17.044Z,92.03
2023-05-21T01:52:16.730Z,92.03
2023-05-21T01:53:16.723Z,92.13
2023-05-21T01:54:16.715Z,92.33
2023-05-21T01:55:16.744Z,92.33
2023-05-21T01:56:16.688Z,92.33
2023-05-21T01:57:16.676Z,92.64
2023-05-21T01:58:17.020Z,92.64
2023-05-21T01:59:16.676Z,92.64
2023-05-21T02:00:16.692Z,92.54
2023-05-21T02:01:16.933Z,92.74
2023-05-21T02:02:16.721Z,92.84
2023-05-21T02:03:16.747Z,92.89
2023-05-21T02:04:16.600Z,92.99
2023-05-21T02:05:16.882Z,93.09
2023-05-21T02:06:16.609Z,93.19
2023-05-21T02:07:16.626Z,93.29
2023-05-21T02:08:16.573Z,93.40
2023-05-21T02:09:16.548Z,93.40
2023-05-21T02:10:16.546Z,93.40
2023-05-21T02:11:16.515Z,93.50
2023-05-21T02:12:16.811Z,93.60
2023-05-21T02:13:16.532Z,93.60
2023-05-21T02:14:16.516Z,93.70
2023-05-21T02:15:16.484Z,93.70
2023-05-21T02:16:16.512Z,93.80
2023-05-21T02:17:16.480Z,93.80
2023-05-21T02:18:16.444Z,93.90
2023-05-21T02:19:17.238Z,94.11
2023-05-21T02:20:16.426Z,94.21
2023-05-21T02:21:16.456Z,94.31
2023-05-21T02:22:16.400Z,94.52
2023-05-21T02:23:16.415Z,94.42
2023-05-21T02:24:16.387Z,94.42
2023-05-21T02:25:16.417Z,94.52
2023-05-21T02:26:16.664Z,94.52
2023-05-21T02:27:16.343Z,94.66
2023-05-21T02:28:16.331Z,94.76
2023-05-21T02:29:16.353Z,94.87
2023-05-21T02:30:16.345Z,94.76
2023-05-21T02:31:16.371Z,94.87
2023-05-21T02:32:16.302Z,95.07
2023-05-21T02:33:16.575Z,95.07
2023-05-21T02:34:16.404Z,95.17
2023-05-21T02:35:16.287Z,95.28
2023-05-21T02:36:16.270Z,95.37
2023-05-21T02:37:16.322Z,95.37
2023-05-21T02:38:16.278Z,95.28
2023-05-21T02:39:16.323Z,95.28
2023-05-21T02:40:16.497Z,95.28
2023-05-21T02:41:16.304Z,95.48
2023-05-21T02:42:16.197Z,95.58
2023-05-21T02:43:16.461Z,95.68
2023-05-21T02:44:16.185Z,95.68
2023-05-21T02:45:16.157Z,95.78
2023-05-21T02:46:16.181Z,95.89
2023-05-21T02:47:16.141Z,95.98
2023-05-21T02:48:16.123Z,95.98
2023-05-21T02:49:16.147Z,95.98
2023-05-21T02:50:16.102Z,95.98
2023-05-21T02:51:16.093Z,95.98
2023-05-21T02:52:16.382Z,96.09
2023-05-21T02:53:16.081Z,96.09
2023-05-21T02:54:16.069Z,95.98
2023-05-21T02:55:16.090Z,95.98
2023-05-21T02:56:16.058Z,95.98
2023-05-21T02:57:16.032Z,95.98
2023-05-21T02:58:16.386Z,95.98
2023-05-21T02:59:16.013Z,96.09
2023-05-21T03:00:16.003Z,96.09
2023-05-21T03:01:16.097Z,96.09
2023-05-21T03:02:16.024Z,96.19
2023-05-21T03:03:16.009Z,96.09
2023-05-21T03:04:15.954Z,96.19
2023-05-21T03:05:16.226Z,96.19
2023-05-21T03:06:15.913Z,96.19
2023-05-21T03:07:15.991Z,96.19
2023-05-21T03:08:15.919Z,96.19
2023-05-21T03:09:15.948Z,96.30
2023-05-21T03:10:15.886Z,96.19
2023-05-21T03:11:15.900Z,96.39
2023-05-21T03:12:16.164Z,96.30
2023-05-21T03:13:15.882Z,96.30
2023-05-21T03:14:15.837Z,96.30
2023-05-21T03:15:15.829Z,96.39
2023-05-21T03:16:15.839Z,96.39
2023-05-21T03:17:15.810Z,96.30
2023-05-21T03:18:15.788Z,96.39
2023-05-21T03:19:16.113Z,96.39
2023-05-21T03:20:15.776Z,96.39
2023-05-21T03:21:15.768Z,96.39
2023-05-21T03:22:15.774Z,96.39
2023-05-21T03:23:16.850Z,96.39
2023-05-21T03:24:15.748Z,96.50
2023-05-21T03:25:15.768Z,96.50
2023-05-21T03:26:16.004Z,96.64
2023-05-21T03:27:15.719Z,96.75
2023-05-21T03:28:15.690Z,96.75
2023-05-21T03:29:15.693Z,96.84
2023-05-21T03:30:15.676Z,96.95
2023-05-21T03:31:15.716Z,97.05
2023-05-21T03:32:15.800Z,97.05
2023-05-21T03:33:15.921Z,97.05
2023-05-21T03:34:15.626Z,97.05
2023-05-21T03:35:15.618Z,97.05
2023-05-21T03:36:15.612Z,97.05
2023-05-21T03:37:15.636Z,97.05
2023-05-21T03:38:15.584Z,97.11
2023-05-21T03:39:15.581Z,97.16
2023-05-21T03:40:15.557Z,97.16
2023-05-21T03:41:15.565Z,97.25
2023-05-21T03:42:15.543Z,97.25
2023-05-21T03:43:15.587Z,97.25
2023-05-21T03:44:15.526Z,97.36
2023-05-21T03:45:15.524Z,97.46
2023-05-21T03:46:15.824Z,97.46
2023-05-21T03:47:15.495Z,97.56
2023-05-21T03:48:15.509Z,97.56
2023-05-21T03:49:15.527Z,97.46
2023-05-21T03:50:15.477Z,97.56
2023-05-21T03:51:15.446Z,97.66
2023-05-21T03:52:15.459Z,97.56
2023-05-21T03:53:15.713Z,97.56
2023-05-21T03:54:15.407Z,97.66
2023-05-21T03:55:15.432Z,97.46
2023-05-21T03:56:15.442Z,97.56
2023-05-21T03:57:15.399Z,97.46
2023-05-21T03:58:15.355Z,97.36
2023-05-21T03:59:15.362Z,97.46
2023-05-21T04:00:15.644Z,97.46
2023-05-21T04:01:15.378Z,97.46
2023-05-21T04:02:15.365Z,97.46
2023-05-21T04:03:15.553Z,97.46
2023-05-21T04:04:15.420Z,97.66
2023-05-21T04:05:15.300Z,97.66
2023-05-21T04:06:15.278Z,97.66
2023-05-21T04:07:15.665Z,97.77
2023-05-21T04:08:15.298Z,97.66
2023-05-21T04:09:15.258Z,97.62
2023-05-21T04:10:15.259Z,97.72
2023-05-21T04:11:15.227Z,97.72
2023-05-21T04:12:15.212Z,97.62
2023-05-21T04:13:15.243Z,97.72
2023-05-21T04:14:15.509Z,97.62
2023-05-21T04:15:15.243Z,97.62
2023-05-21T04:16:15.226Z,97.52
2023-05-21T04:17:15.180Z,97.62
2023-05-21T04:18:15.168Z,97.52
2023-05-21T04:19:15.241Z,97.52
2023-05-21T04:20:15.156Z,97.41
2023-05-21T04:21:15.421Z,97.52
2023-05-21T04:22:15.125Z,97.41
2023-05-21T04:23:15.116Z,97.41
2023-05-21T04:24:15.089Z,97.31
2023-05-21T04:25:15.137Z,97.31
2023-05-21T04:26:15.106Z,97.31
2023-05-21T04:27:15.063Z,97.31
2023-05-21T04:28:15.349Z,97.21
2023-05-21T04:29:15.045Z,97.11
2023-05-21T04:30:15.060Z,97.16
2023-05-21T04:31:15.103Z,97.06
2023-05-21T04:32:15.043Z,96.96
2023-05-21T04:33:15.008Z,96.86
2023-05-21T04:34:14.986Z,96.76
2023-05-21T04:35:15.350Z,96.66
2023-05-21T04:36:14.970Z,96.55
2023-05-21T04:37:15.003Z,96.35
2023-05-21T04:38:14.941Z,96.10
2023-05-21T04:39:14.941Z,96.00
2023-05-21T04:40:14.924Z,95.69
2023-05-21T04:41:14.960Z,95.59
2023-05-21T04:42:15.195Z,95.39
2023-05-21T04:43:14.942Z,95.39
2023-05-21T04:44:15.308Z,95.29
2023-05-21T04:45:14.926Z,95.29
2023-05-21T04:46:14.894Z,95.29
2023-05-21T04:47:15.069Z,95.14
2023-05-21T04:48:14.832Z,95.04
2023-05-21T04:49:15.167Z,95.14
2023-05-21T04:50:14.819Z,95.34
2023-05-21T04:51:14.817Z,94.93
2023-05-21T04:52:14.802Z,94.63
2023-05-21T04:53:14.793Z,94.43
2023-05-21T04:54:14.792Z,94.32
2023-05-21T04:55:14.823Z,94.12
2023-05-21T04:56:15.021Z,94.12
2023-05-21T04:57:14.756Z,93.92
2023-05-21T04:58:14.722Z,93.82
2023-05-21T04:59:14.724Z,93.98
2023-05-21T05:00:14.709Z,93.98
2023-05-21T05:01:14.790Z,93.77
2023-05-21T05:02:14.786Z,93.47
2023-05-21T05:03:15.192Z,93.47
2023-05-21T05:04:14.682Z,93.47
2023-05-21T05:05:14.682Z,93.47
2023-05-21T05:06:14.648Z,93.26
2023-05-21T05:07:14.670Z,93.47
2023-05-21T05:08:16.066Z,93.37
2023-05-21T05:09:14.616Z,93.47
2023-05-21T05:10:14.884Z,93.47
2023-05-21T05:11:14.605Z,93.47
2023-05-21T05:12:14.602Z,93.32
2023-05-21T05:13:14.626Z,93.32
2023-05-21T05:14:14.603Z,93.32
2023-05-21T05:15:14.565Z,93.12
2023-05-21T05:16:14.570Z,93.12
2023-05-21T05:17:14.922Z,92.91
2023-05-21T05:18:14.540Z,92.91
2023-05-21T05:19:14.566Z,92.71
2023-05-21T05:20:14.514Z,92.71
2023-05-21T05:21:14.488Z,92.71
2023-05-21T05:22:14.491Z,92.61
2023-05-21T05:23:14.464Z,92.41
2023-05-21T05:24:14.767Z,92.30
2023-05-21T05:25:14.491Z,92.16
2023-05-21T05:26:14.448Z,92.16
2023-05-21T05:27:14.665Z,92.16
2023-05-21T05:28:14.438Z,92.06
2023-05-21T05:29:14.435Z,91.86
2023-05-21T05:30:14.429Z,92.06
2023-05-21T05:31:14.755Z,92.06
2023-05-21T05:32:14.402Z,91.96
2023-05-21T05:33:14.387Z,91.86
2023-05-21T05:34:14.345Z,91.65
2023-05-21T05:35:14.350Z,91.75
2023-05-21T05:36:14.368Z,91.45
2023-05-21T05:37:14.384Z,91.20
2023-05-21T05:38:14.609Z,91.25
2023-05-21T05:39:14.306Z,91.10
2023-05-21T05:40:14.293Z,91.20
2023-05-21T05:41:14.301Z,91.41
2023-05-21T05:42:14.265Z,91.30
2023-05-21T05:43:14.303Z,91.10
2023-05-21T05:44:14.259Z,91.41
2023-05-21T05:45:14.252Z,91.10
2023-05-21T05:46:14.313Z,91.10
2023-05-21T05:47:14.210Z,90.96
2023-05-21T05:48:14.200Z,90.96
2023-05-21T05:49:14.261Z,90.55
2023-05-21T05:50:14.192Z,90.35
2023-05-21T05:51:14.479Z,90.45
2023-05-21T05:52:14.171Z,90.14
2023-05-21T05:53:14.174Z,89.74
2023-05-21T05:54:14.253Z,90.25
2023-05-21T05:55:14.208Z,90.05
2023-05-21T05:56:14.128Z,90.14
2023-05-21T05:57:14.111Z,90.05
2023-05-21T05:58:14.380Z,89.64
2023-05-21T05:59:14.104Z,89.74
2023-05-21T06:00:14.061Z,89.80
2023-05-21T06:01:14.128Z,89.50
2023-05-21T06:02:14.208Z,89.39
2023-05-21T06:03:14.167Z,89.09
2023-05-21T06:04:14.060Z,89.19
2023-05-21T06:05:14.343Z,89.29
2023-05-21T06:06:14.181Z,89.29
2023-05-21T06:07:14.064Z,89.09
2023-05-21T06:08:14.031Z,89.29
2023-05-21T06:09:13.999Z,89.19
2023-05-21T06:10:13.970Z,88.75
2023-05-21T06:11:13.979Z,88.75
2023-05-21T06:12:14.963Z,88.64
2023-05-21T06:13:13.986Z,88.44
2023-05-21T06:14:13.934Z,88.64
2023-05-21T06:15:13.913Z,88.13
2023-05-21T06:16:13.968Z,88.44
2023-05-21T06:17:13.916Z,88.48
2023-05-21T06:18:13.886Z,88.89
2023-05-21T06:19:13.999Z,88.78
2023-05-21T06:20:13.901Z,88.78
2023-05-21T06:21:13.856Z,88.78
2023-05-21T06:22:13.868Z,89.04
2023-05-21T06:23:13.846Z,88.54
2023-05-21T06:24:13.867Z,88.34
2023-05-21T06:25:14.157Z,88.03
2023-05-21T06:26:13.805Z,87.93
2023-05-21T06:27:13.804Z,87.83
2023-05-21T06:28:13.790Z,87.48
2023-05-21T06:29:15.401Z,87.48
2023-05-21T06:30:13.764Z,87.28
2023-05-21T06:31:13.811Z,87.28
2023-05-21T06:32:13.761Z,87.28
2023-05-21T06:33:13.780Z,87.08
2023-05-21T06:34:13.725Z,87.08
2023-05-21T06:35:13.714Z,86.77
2023-05-21T06:36:13.687Z,86.37
2023-05-21T06:37:14.054Z,86.47
2023-05-21T06:38:13.664Z,86.27
2023-05-21T06:39:13.657Z,86.53
2023-05-21T06:40:13.657Z,86.33
2023-05-21T06:41:13.649Z,86.22
2023-05-21T06:42:13.630Z,86.02
2023-05-21T06:43:13.976Z,85.42
2023-05-21T06:44:13.605Z,85.82
2023-05-21T06:45:13.610Z,85.21
2023-05-21T06:46:13.623Z,85.42
2023-05-21T06:47:13.588Z,85.82
2023-05-21T06:48:13.574Z,85.17
2023-05-21T06:49:14.516Z,84.56
2023-05-21T06:50:13.847Z,84.67
2023-05-21T06:51:13.542Z,84.97
2023-05-21T06:52:13.535Z,85.48
2023-05-21T06:53:13.533Z,84.36
2023-05-21T06:54:13.535Z,84.77
2023-05-21T06:55:13.558Z,84.77
2023-05-21T06:56:13.498Z,84.67
2023-05-21T06:57:13.749Z,84.67
2023-05-21T06:58:13.485Z,84.47
2023-05-21T06:59:13.467Z,84.36
2023-05-21T07:00:13.486Z,83.76
2023-05-21T07:01:13.508Z,84.16
2023-05-21T07:02:13.480Z,83.86
2023-05-21T07:03:13.564Z,83.96
2023-05-21T07:04:13.676Z,84.56
2023-05-21T07:05:13.429Z,84.77
2023-05-21T07:06:13.383Z,84.06
2023-05-21T07:07:13.401Z,84.36
2023-05-21T07:08:13.368Z,84.67
2023-05-21T07:09:13.370Z,84.12
2023-05-21T07:10:13.348Z,84.02
2023-05-21T07:11:13.623Z,83.21
2023-05-21T07:12:13.337Z,83.27
2023-05-21T07:13:13.339Z,82.87
2023-05-21T07:14:13.307Z,82.26
2023-05-21T07:15:13.355Z,82.06
2023-05-21T07:16:13.349Z,82.06
2023-05-21T07:17:13.311Z,82.53
2023-05-21T07:18:13.656Z,82.02
2023-05-21T07:19:13.318Z,81.48
2023-05-21T07:20:13.350Z,81.57
2023-05-21T07:21:13.266Z,81.07
2023-05-21T07:22:13.248Z,81.07
2023-05-21T07:23:13.193Z,80.16
2023-05-21T07:24:13.223Z,80.36
2023-05-21T07:25:13.566Z,80.46
2023-05-21T07:26:13.174Z,80.57
2023-05-21T07:27:24.835Z,80.87
2023-05-21T07:28:13.159Z,80.77
2023-05-21T07:29:13.148Z,81.03
2023-05-21T07:30:13.209Z,81.13
2023-05-21T07:31:13.248Z,81.07
2023-05-21T07:32:13.421Z,81.27
2023-05-21T07:33:13.124Z,80.93
2023-05-21T07:34:13.093Z,81.23
2023-05-21T07:35:13.072Z,80.22
2023-05-21T07:36:13.069Z,80.73
2023-05-21T07:37:13.111Z,80.77
2023-05-21T07:38:13.049Z,80.73
2023-05-21T07:39:13.357Z,80.83
2023-05-21T07:40:13.063Z,80.73
2023-05-21T07:41:13.044Z,79.79
2023-05-21T07:42:13.007Z,79.79
2023-05-21T07:43:13.057Z,79.58
2023-05-21T07:44:12.986Z,80.08
2023-05-21T07:45:13.000Z,79.54
2023-05-21T07:46:13.284Z,79.14
2023-05-21T07:47:12.975Z,78.90
2023-05-21T07:48:13.042Z,78.59
2023-05-21T07:49:12.960Z,78.09
2023-05-21T07:50:12.922Z,77.95
2023-05-21T07:51:12.895Z,77.55
2023-05-21T07:52:12.902Z,77.25
2023-05-21T07:53:13.217Z,76.44
2023-05-21T07:54:12.876Z,76.75
2023-05-21T07:55:12.915Z,77.15
2023-05-21T07:56:12.881Z,76.75
2023-05-21T07:57:12.871Z,77.25
2023-05-21T07:58:12.840Z,76.75
2023-05-21T07:59:13.862Z,76.54
2023-05-21T08:00:12.821Z,76.95
2023-05-21T08:01:12.915Z,76.40
2023-05-21T08:02:12.798Z,76.51
2023-05-21T08:03:12.952Z,76.17
2023-05-21T08:04:12.903Z,75.56
2023-05-21T08:05:12.901Z,75.02
2023-05-21T08:06:13.058Z,74.99
2023-05-21T08:07:12.811Z,74.15
2023-05-21T08:08:12.764Z,73.81
2023-05-21T08:09:12.740Z,72.37
2023-05-21T08:10:12.715Z,72.13
2023-05-21T08:11:12.712Z,71.13
2023-05-21T08:12:12.746Z,69.62
2023-05-21T08:13:12.724Z,71.26
2023-05-21T08:14:12.653Z,71.63
2023-05-21T08:15:12.663Z,70.93
2023-05-21T08:16:12.709Z,70.39
2023-05-21T08:17:12.637Z,69.39
2023-05-21T08:18:12.649Z,69.06
2023-05-21T08:19:13.026Z,69.15
2023-05-21T08:20:12.599Z,68.72
2023-05-21T08:21:12.591Z,68.72
2023-05-21T08:22:12.607Z,68.32
2023-05-21T08:23:12.573Z,68.22
2023-05-21T08:24:12.606Z,67.79
2023-05-21T08:25:12.645Z,67.38
2023-05-21T08:26:12.541Z,67.55
2023-05-21T08:27:12.558Z,68.68
2023-05-21T08:28:12.503Z,69.29
2023-05-21T08:29:12.498Z,69.52
2023-05-21T08:30:12.522Z,70.03
2023-05-21T08:31:12.594Z,70.03
2023-05-21T08:32:12.646Z,70.23
2023-05-21T08:33:12.563Z,69.99
2023-05-21T08:34:12.470Z,71.16
2023-05-21T08:35:12.461Z,69.53
2023-05-21T08:36:12.458Z,69.12
2023-05-21T08:37:12.504Z,68.69
2023-05-21T08:38:12.712Z,68.15
2023-05-21T08:39:12.460Z,67.18
2023-05-21T08:40:12.421Z,68.32
2023-05-21T08:41:12.469Z,68.35
2023-05-21T08:42:13.168Z,69.15
2023-05-21T08:43:12.464Z,69.06
2023-05-21T08:44:12.703Z,69.35
2023-05-21T08:45:12.348Z,69.69
2023-05-21T08:46:12.418Z,69.92
2023-05-21T08:47:12.312Z,70.09
2023-05-21T08:48:12.316Z,70.09
2023-05-21T08:49:12.366Z,71.00
2023-05-21T08:50:12.314Z,71.86
2023-05-21T08:51:12.322Z,70.63
2023-05-21T08:52:12.269Z,70.63
2023-05-21T08:53:19.904Z,70.12
2023-05-21T08:54:12.249Z,70.53
2023-05-21T08:55:12.321Z,69.92
2023-05-21T08:56:12.515Z,68.99
2023-05-21T08:57:12.226Z,68.69
2023-05-21T08:58:12.276Z,68.02
2023-05-21T08:59:12.201Z,68.52
2023-05-21T09:00:12.228Z,68.39
2023-05-21T09:01:12.298Z,69.19
2023-05-21T09:02:12.176Z,69.29
2023-05-21T09:03:12.515Z,68.92
2023-05-21T09:04:20.310Z,69.22
2023-05-21T09:05:12.135Z,69.73
2023-05-21T09:06:12.135Z,69.69
2023-05-21T09:07:12.163Z,69.19
2023-05-21T09:08:12.161Z,68.29
2023-05-21T09:09:12.141Z,68.39
2023-05-21T09:10:12.403Z,68.02
2023-05-21T09:11:12.172Z,69.96
2023-05-21T09:12:12.064Z,71.26
2023-05-21T09:13:12.112Z,70.63
2023-05-21T09:14:12.039Z,70.43
2023-05-21T09:15:12.035Z,70.83
2023-05-21T09:16:12.060Z,71.00
2023-05-21T09:17:12.014Z,70.26
2023-05-21T09:18:12.003Z,69.76
2023-05-21T09:19:12.115Z,69.82
2023-05-21T09:20:12.034Z,68.82
2023-05-21T09:21:11.950Z,69.09
2023-05-21T09:22:11.972Z,67.99
2023-05-21T09:23:12.226Z,67.19
2023-05-21T09:24:11.970Z,67.79
2023-05-21T09:25:11.978Z,68.29
2023-05-21T09:26:11.905Z,67.46
2023-05-21T09:27:11.907Z,67.19
2023-05-21T09:28:11.897Z,68.49
2023-05-21T09:29:11.905Z,68.59
2023-05-21T09:30:11.856Z,67.69
2023-05-21T09:31:11.930Z,68.29
2023-05-21T09:32:11.835Z,68.29
2023-05-21T09:33:11.880Z,68.96
2023-05-21T09:34:11.848Z,67.55
2023-05-21T09:35:11.822Z,67.89
2023-05-21T09:36:12.106Z,68.19
2023-05-21T09:37:23.590Z,69.29
2023-05-21T09:38:11.776Z,69.49
2023-05-21T09:39:11.806Z,68.69
2023-05-21T09:40:11.783Z,68.66
2023-05-21T09:41:11.769Z,68.49
2023-05-21T09:42:11.761Z,67.99
2023-05-21T09:43:11.789Z,69.19
2023-05-21T09:44:11.719Z,68.16
2023-05-21T09:45:11.771Z,67.46
2023-05-21T09:46:11.771Z,67.66
2023-05-21T09:47:11.649Z,67.36
2023-05-21T09:48:11.993Z,67.96
2023-05-21T09:49:11.680Z,67.43
2023-05-21T09:50:11.701Z,67.43
2023-05-21T09:51:11.632Z,67.93
2023-05-21T09:52:11.641Z,67.25
2023-05-21T09:53:11.623Z,67.99
2023-05-21T09:54:11.900Z,68.92
2023-05-21T09:55:11.695Z,69.12
2023-05-21T09:56:11.582Z,68.73
2023-05-21T09:57:11.582Z,69.12
2023-05-21T09:58:11.635Z,69.62
2023-05-21T09:59:11.621Z,69.82
2023-05-21T10:00:11.573Z,68.76
2023-05-21T10:01:11.884Z,69.02
2023-05-21T10:02:11.673Z,67.69
2023-05-21T10:03:11.623Z,66.96
2023-05-21T10:04:11.514Z,66.86
2023-05-21T10:05:11.503Z,66.79
2023-05-21T10:06:11.522Z,66.89
2023-05-21T10:07:11.565Z,67.69
2023-05-21T10:08:11.755Z,66.49
2023-05-21T10:09:11.532Z,65.76
2023-05-21T10:10:11.431Z,66.06
2023-05-21T10:11:11.413Z,65.73
2023-05-21T10:12:11.427Z,65.83
2023-05-21T10:13:11.445Z,66.03
2023-05-21T10:14:11.399Z,66.03
2023-05-21T10:15:11.368Z,65.90
2023-05-21T10:16:11.487Z,65.83
2023-05-21T10:17:11.351Z,66.00
2023-05-21T10:18:11.476Z,65.20
2023-05-21T10:19:11.503Z,66.00
2023-05-21T10:20:11.349Z,66.20
2023-05-21T10:21:11.674Z,66.17
2023-05-21T10:22:11.359Z,64.87
2023-05-21T10:23:11.292Z,65.07
2023-05-21T10:24:11.351Z,63.74
2023-05-21T10:25:11.385Z,63.87
2023-05-21T10:26:11.298Z,64.14
2023-05-21T10:27:11.295Z,64.07
2023-05-21T10:28:11.525Z,64.27
2023-05-21T10:29:11.282Z,63.67
2023-05-21T10:30:11.284Z,64.33
2023-05-21T10:31:11.303Z,65.03
2023-05-21T10:32:11.254Z,65.23
2023-05-21T10:33:11.246Z,65.76
2023-05-21T10:34:11.229Z,65.96
2023-05-21T10:35:11.194Z,66.03
2023-05-21T10:36:11.196Z,66.83
2023-05-21T10:37:11.238Z,65.06
2023-05-21T10:38:11.152Z,65.53
2023-05-21T10:39:11.130Z,65.03
2023-05-21T10:40:11.207Z,65.53
2023-05-21T10:41:11.396Z,64.60
2023-05-21T10:42:11.167Z,64.80
2023-05-21T10:43:11.179Z,64.53
2023-05-21T10:44:11.171Z,65.23
2023-05-21T10:45:11.075Z,66.03
2023-05-21T10:46:11.152Z,65.53
2023-05-21T10:47:11.102Z,65.90
2023-05-21T10:48:11.441Z,65.47
2023-05-21T10:49:11.067Z,65.17
2023-05-21T10:50:11.023Z,65.17
2023-05-21T10:51:11.008Z,65.37
2023-05-21T10:52:11.069Z,65.47
2023-05-21T10:53:11.066Z,65.47
2023-05-21T10:54:11.007Z,65.67
2023-05-21T10:55:11.271Z,64.84
2023-05-21T10:56:11.010Z,64.11
2023-05-21T10:57:10.995Z,63.71
2023-05-21T10:58:11.023Z,63.18
2023-05-21T10:59:10.953Z,63.28
2023-05-21T11:00:10.937Z,62.12
2023-05-21T11:01:11.103Z,62.81
2023-05-21T11:02:10.899Z,63.68
2023-05-21T11:03:10.978Z,63.21
2023-05-21T11:04:10.898Z,64.51
2023-05-21T11:05:10.935Z,63.58
2023-05-21T11:06:10.890Z,63.08
2023-05-21T11:07:11.049Z,63.48
2023-05-21T11:08:10.850Z,64.28
2023-05-21T11:09:10.855Z,63.55
2023-05-21T11:10:10.860Z,62.95
2023-05-21T11:11:10.917Z,63.05
2023-05-21T11:12:10.805Z,63.18
2023-05-21T11:13:10.927Z,63.68
2023-05-21T11:14:10.802Z,63.88
2023-05-21T11:15:10.763Z,64.07
2023-05-21T11:16:10.791Z,63.78
2023-05-21T11:17:10.912Z,64.37
2023-05-21T11:18:10.737Z,63.78
2023-05-21T11:19:10.862Z,64.21
2023-05-21T11:20:10.736Z,64.37
2023-05-21T11:21:10.743Z,63.78
2023-05-21T11:22:10.711Z,64.07
2023-05-21T11:23:10.792Z,64.54
2023-05-21T11:24:10.703Z,64.31
2023-05-21T11:25:10.770Z,64.01
2023-05-21T11:26:10.994Z,61.66
2023-05-21T11:27:10.694Z,63.38
2023-05-21T11:28:10.666Z,62.81
2023-05-21T11:29:10.688Z,65.61
2023-05-21T11:30:10.703Z,64.51
2023-05-21T11:31:10.652Z,64.01
2023-05-21T11:32:10.637Z,64.71
2023-05-21T11:33:10.958Z,65.01
2023-05-21T11:34:10.586Z,66.87
2023-05-21T11:35:10.585Z,65.47
2023-05-21T11:36:10.536Z,64.15
2023-05-21T11:37:10.594Z,63.85
2023-05-21T11:38:10.487Z,63.62
2023-05-21T11:39:10.514Z,62.32
2023-05-21T11:40:10.780Z,63.22
2023-05-21T11:41:10.472Z,62.52
2023-05-21T11:42:10.498Z,63.32
2023-05-21T11:43:10.521Z,61.93
2023-05-21T11:44:10.486Z,61.53
2023-05-21T11:45:10.500Z,61.99
2023-05-21T11:46:10.459Z,62.68
2023-05-21T11:47:10.748Z,63.48
2023-05-21T11:48:10.475Z,63.98
2023-05-21T11:49:10.461Z,63.95
2023-05-21T11:50:10.437Z,64.94
2023-05-21T11:51:10.379Z,62.26
2023-05-21T11:52:10.370Z,62.98
2023-05-21T11:53:10.393Z,64.01
2023-05-21T11:54:10.699Z,64.41
2023-05-21T11:55:10.487Z,64.48
2023-05-21T11:56:10.317Z,64.97
2023-05-21T11:57:10.351Z,64.84
2023-05-21T11:58:10.327Z,64.34
2023-05-21T11:59:10.303Z,63.12
2023-05-21T12:00:10.323Z,62.59
2023-05-21T12:01:10.617Z,63.09
2023-05-21T12:02:10.303Z,62.07
2023-05-21T12:03:10.403Z,63.36
2023-05-21T12:04:10.503Z,62.46
2023-05-21T12:05:10.761Z,61.64
2023-05-21T12:06:10.317Z,61.83
2023-05-21T12:07:10.343Z,61.24
2023-05-21T12:08:10.544Z,61.64
2023-05-21T12:09:10.697Z,61.94
2023-05-21T12:10:10.210Z,61.83
2023-05-21T12:11:10.168Z,60.44
2023-05-21T12:12:10.186Z,60.30
2023-05-21T12:13:10.221Z,61.10
2023-05-21T12:14:10.142Z,61.63
2023-05-21T12:15:10.148Z,61.63
2023-05-21T12:16:10.148Z,61.69
2023-05-21T12:17:10.169Z,61.20
2023-05-21T12:18:10.125Z,61.57
2023-05-21T12:19:10.216Z,60.68
2023-05-21T12:20:10.065Z,61.67
2023-05-21T12:21:12.343Z,62.69
2023-05-21T12:22:10.099Z,62.66
2023-05-21T12:23:10.031Z,61.74
2023-05-21T12:24:10.062Z,62.04
2023-05-21T12:25:10.286Z,61.74
2023-05-21T12:26:09.986Z,61.80
2023-05-21T12:27:09.964Z,60.69
2023-05-21T12:28:10.256Z,59.49
2023-05-21T12:29:09.976Z,60.09
2023-05-21T12:30:10.017Z,60.69
2023-05-21T12:31:10.002Z,60.19
2023-05-21T12:32:10.087Z,59.76
2023-05-21T12:33:09.975Z,59.76
2023-05-21T12:34:09.927Z,60.85
2023-05-21T12:35:10.243Z,60.36
2023-05-21T12:36:09.964Z,60.56
2023-05-21T12:37:10.036Z,60.26
2023-05-21T12:38:09.927Z,59.76
2023-05-21T12:39:11.232Z,60.13
2023-05-21T12:40:09.891Z,59.53
2023-05-21T12:41:09.877Z,59.63
2023-05-21T12:42:10.156Z,59.80
2023-05-21T12:43:09.987Z,58.42
2023-05-21T12:44:09.831Z,58.32
2023-05-21T12:45:09.816Z,59.21
2023-05-21T12:46:09.866Z,59.41
2023-05-21T12:47:09.836Z,59.21
2023-05-21T12:48:09.850Z,58.32
2023-05-21T12:49:10.134Z,57.32
2023-05-21T12:50:09.776Z,57.87
2023-05-21T12:51:09.738Z,58.67
2023-05-21T12:52:09.747Z,58.77